Tekamah, Nebraska
Current Conditions -  °F | °C
As of 8:54 PM on Sunday 21 Dec 2014 (Local Time) from KTQE Reporting Station
Light Rain Light Rain  
Wind Chill: 35°   Ceiling: 700
Heat Index: 42°   Visibility: 5mi
Dew Point: 40°   Wind: 15mph
Humidity: 92%   Direction: 160°SSE
Pressure: 29.65"   Gusts: NA
Location:  41.78°N, 96.22°W
Report Text: KTQE 220254Z AUTO 16013KT 5SM -RA BR OVC007 06/04 A2965 RMK AO2 RAB18 CIG 005V010 SLP041 P0000 60000 T00560044 58013
Loading
Personal Weather Stations






























Interactive Weather Map New forecast layout! Learn more

10-Day Weather Forecast

Advertisements
Track Severe Weather on mobile